M I D A S
Marine Information and Data Acquisition System
Tripno 1682 of the Zeeleeuw from 2009-04-27 14:56:34 to 2009-04-28 03:48:09
Back to CruiseResearch ActivitiesStationsMapUnderway DataData graphs

EquipmentUnitsComment
TimeDGPSUTC
LatitudeDGPSDM.mWGS84
LongitudeDGPSDM.mWGS84
HeadingGyrodeg 
SOGDGPSknotsSpeed over ground
COGDGPSdegCourse over ground
DepthEcho soundermeters200 kHz
Missing or incorrect values are displayed as -999
Navigation data collected by the RV Zeeleeuw from 2009-04-27 09:56:35 to 2009-04-28 08:48:07
Time Latitude Longitude Heading SOG COG Depth
2009-04-27 09:58:40 51°10.373 2°38.831 249 12.5 249 -999
2009-04-27 10:00:40 51°10.238 2°38.204 249.1 12.5 250 -999
2009-04-27 10:02:40 51°10.151 2°37.558 259.6 12.4 258 -999
2009-04-27 10:04:40 51°10.085 2°36.909 262.5 12.4 261 -999
2009-04-27 10:06:40 51°10.069 2°36.253 266.3 12.3 265 -999
2009-04-27 10:08:40 51°10.315 2°35.834 320.6 11.5 321 -999
2009-04-27 10:10:40 51°10.639 2°36.056 32 10.8 31 -999
2009-04-27 10:12:40 51°10.956 2°36.327 28.8 10.8 24 -999
2009-04-27 10:14:40 51°11.282 2°36.581 29.1 10.9 26 -999
2009-04-27 10:16:40 51°11.608 2°36.834 29.8 10.9 27 -999
2009-04-27 10:18:40 51°11.945 2°37.036 22.8 10.8 20 -999
2009-04-27 10:20:40 51°12.294 2°37.2 20.8 10.9 16 -999
2009-04-27 10:22:40 51°12.643 2°37.359 20.1 10.9 16 -999
2009-04-27 10:24:40 51°13.01 2°37.304 356.6 11.19 351 -999
2009-04-27 10:26:40 51°13.382 2°37.247 358.1 11.19 354 -999
2009-04-27 10:28:40 51°13.744 2°37.103 350 11.59 342 -999
2009-04-27 10:30:40 51°14.064 2°36.747 330.8 11.69 325 -999
2009-04-27 10:32:40 51°14.39 2°36.419 332.1 11.5 327 -999
2009-04-27 10:34:40 51°14.736 2°36.152 335.8 11.59 334 -999
2009-04-27 10:36:40 51°15.102 2°36.264 20.8 11.3 19 -999
2009-04-27 10:38:40 51°15.465 2°36.438 21.1 11.4 16 -999
2009-04-27 10:40:40 51°15.834 2°36.593 19 11.4 14 -999
2009-04-27 10:42:40 51°16.153 2°36.708 16.8 8.69 12 -999
2009-04-27 10:44:40 51°16.428 2°36.79 16 8.4 11 -999
2009-04-27 10:46:40 51°16.599 2°36.82 13.9 4 3 -999
2009-04-27 10:48:40 51°16.644 2°36.797 4 1.19 341 -999
2009-04-27 10:50:40 51°16.659 2°36.77 335.5 0.59 311 -999
2009-04-27 10:52:40 51°16.665 2°36.747 312.1 0.4 281 -999
2009-04-27 10:54:40 51°16.669 2°36.736 310.8 0.2 312 -999
2009-04-27 10:56:40 51°16.867 2°36.533 336 9.9 329 -999
2009-04-27 10:58:40 51°17.179 2°36.2 329.1 11.3 323 -999
2009-04-27 11:00:40 51°17.469 2°35.825 331.8 11.09 320 -999
2009-04-27 11:02:40 51°17.703 2°35.361 311.3 11.19 304 -999
2009-04-27 11:04:40 51°17.822 2°34.784 292.6 11.59 287 -999
2009-04-27 11:06:40 51°17.836 2°34.14 276.3 12.09 272 -999
2009-04-27 11:08:40 51°17.783 2°33.513 263.8 12.09 262 -999
2009-04-27 11:10:40 51°17.686 2°32.901 256.3 11.9 253 -999
2009-04-27 11:12:40 51°17.532 2°32.329 248.5 11.8 247 -999
2009-04-27 11:14:40 51°17.379 2°31.76 249 11.69 247 -999
2009-04-27 11:16:40 51°17.234 2°31.191 250 11.5 247 -999
2009-04-27 11:18:40 51°17.084 2°30.627 250 11.5 246 -999
2009-04-27 11:20:40 51°16.932 2°30.05 250.6 11.69 247 -999
2009-04-27 11:22:40 51°16.783 2°29.486 249.9 11.69 246 -999
2009-04-27 11:24:40 51°16.633 2°28.915 250.5 11.69 247 -999
2009-04-27 11:26:40 51°16.485 2°28.349 250.4 11.59 247 -999
2009-04-27 11:28:40 51°16.335 2°27.782 250 11.59 247 -999
2009-04-27 11:30:40 51°16.197 2°27.221 252 11.19 249 -999
2009-04-27 11:32:40 51°16.071 2°26.721 251 10.09 247 -999
2009-04-27 11:34:40 51°15.987 2°26.224 255.5 9.8 253 -999
2009-04-27 11:36:40 51°16.125 2°25.775 296.3 9.8 302 -999
2009-04-27 11:38:40 51°16.202 2°25.685 288.8 1.19 336 -999
2009-04-27 11:40:40 51°16.224 2°25.751 286.1 1.5 65 -999
2009-04-27 11:42:40 51°16.241 2°25.864 293.1 2.39 80 -999
2009-04-27 11:44:40 51°16.249 2°25.997 314.6 2.7 85 -999
2009-04-27 11:46:40 51°16.253 2°26.135 325.8 2.6 89 -999
2009-04-27 11:48:40 51°16.311 2°26.164 325.1 2.5 9 -999
2009-04-27 11:50:40 51°16.514 2°25.783 301.3 10 310 -999
2009-04-27 11:52:40 51°16.885 2°25.73 355.8 11.8   -999
2009-04-27 11:54:40 51°17.258 2°26.061 23.5 12.69 36 -999
2009-04-27 11:56:40 51°17.577 2°26.529 40.3 12.8 47 -999
2009-04-27 11:58:40 51°17.902 2°26.997 41.1 13.19 44 -999
2009-04-27 13:00:40 51°26.413 2°23.759 314.3 11.69 324 -999
2009-04-27 13:02:40 51°26.707 2°23.374 313 11.5 320 -999
2009-04-27 13:04:40 51°26.965 2°22.96 306.1 10.9 314 -999
2009-04-27 13:06:40 51°27.213 2°22.529 305.6 11.09 314 -999
2009-04-27 13:08:40 51°27.453 2°22.073 301.5 11.19 310 -999
2009-04-27 13:10:40 51°27.689 2°21.607 302 11.4 309 -999
2009-04-27 13:12:40 51°27.91 2°21.184 301.8 9.69 308 -999
2009-04-27 13:14:40 51°28.034 2°20.995 291.8 3 316 -999
2009-04-27 13:16:40 51°28.091 2°21.03 264 1.89 26 -999
2009-04-27 13:18:40 51°28.154 2°21.102 269.1 2.39 33 -999
2009-04-27 13:20:40 51°28.215 2°21.192 292.6 2.39 47 -999
2009-04-27 13:22:40 51°28.275 2°21.283 303.8 2.6 44 -999
2009-04-27 13:24:40 51°28.336 2°21.37 299.6 2.5 40 -999
2009-04-27 13:26:40 51°28.335 2°21.358 237.6 1.3 238 -999
2009-04-27 13:28:40 51°28.181 2°21.302 210 5.5 207 -999
2009-04-27 13:30:40 51°28.072 2°21.191 216 3.7 210 -999
2009-04-27 13:32:40 51°28.058 2°21.121 238.5 1.19 281 -999
2009-04-27 13:34:40 51°28.013 2°21.006 232 3 238 -999
2009-04-27 13:36:40 51°28.052 2°21.045 223.5 1.8 35 -999
2009-04-27 13:38:40 51°28.115 2°21.12 264.1 2.39 40 -999
2009-04-27 13:40:40 51°28.175 2°21.21 302 2.29 43 -999
2009-04-27 13:42:40 51°28.241 2°21.278 316.5 2.29 29 -999
2009-04-27 13:44:40 51°28.324 2°21.315 303.8 2.5 14 -999
2009-04-27 13:46:40 51°28.618 2°21.486 20.1 11.09 19 -999
2009-04-27 13:48:40 51°29.044 2°21.667 13 13.5 13 -999
2009-04-27 13:50:40 51°29.48 2°21.858 8.4 13.69 19 -999
2009-04-27 13:52:40 51°29.912 2°22.061 12.3 13.69 21 -999
2009-04-27 13:54:40 51°30.346 2°22.257 11 13.59 17 -999
2009-04-27 13:56:40 51°30.771 2°22.511 17.8 13.9 23 -999
2009-04-27 13:58:40 51°31.194 2°22.775 17.8 13.3 20 -999
2009-04-27 14:00:40 51°31.618 2°23.016 16.1 13.3 22 -999
2009-04-27 14:02:40 51°32.043 2°23.251 18.1 13.69 20 -999
2009-04-27 14:04:40 51°32.471 2°23.366 5.9 13.19 10 -999
2009-04-27 14:06:40 51°32.906 2°23.474 5.9 13.19 4 -999
2009-04-27 14:08:40 51°33.317 2°23.347 335.3 12.8 347 -999
2009-04-27 14:10:40 51°33.711 2°23.135 334 12.3 337 -999
2009-04-27 14:12:40 51°34.113 2°22.91 334 12.69 340 -999
2009-04-27 14:14:40 51°34.51 2°22.69 333.6 12.59 338 -999
2009-04-27 14:16:40 51°34.9 2°22.468 331.3 12.5 339 -999
2009-04-27 14:18:40 51°35.317 2°22.313 338.1 13.09 348 -999
2009-04-27 14:20:40 51°35.757 2°22.413 6.5 13.9 9 -999
2009-04-27 14:22:40 51°36.209 2°22.564 9.5 13.69 9 -999
2009-04-27 14:24:40 51°36.658 2°22.718 9 13.59 14 -999
2009-04-27 14:26:40 51°37.103 2°22.851 11 13.69 6 -999
2009-04-27 14:28:40 51°37.536 2°23.084 21.6 13.69 13 -999
2009-04-27 14:30:40 51°37.958 2°23.334 22.8 13.5 15 -999
2009-04-27 14:32:40 51°38.378 2°23.58 20.6 13.69 23 -999
2009-04-27 14:34:40 51°38.803 2°23.82 17.6 13.8 23 -999
2009-04-27 14:36:40 51°39.22 2°24.057 17.6 13.9 24 -999
2009-04-27 14:38:40 51°39.643 2°24.313 19.6 13.5 21 -999
2009-04-27 14:40:40 51°40.064 2°24.613 24.3 14 27 -999
2009-04-27 14:42:40 51°40.484 2°24.9 19.8 13.8 22 -999
2009-04-27 14:44:40 51°40.815 2°25.081 14.1 9.9 21 -999
2009-04-27 14:46:40 51°41.03 2°25.188 14.6 6.09 16 -999
2009-04-27 14:48:40 51°41.127 2°25.189 292.6 2.6 6 -999
2009-04-27 14:50:40 51°41.207 2°25.242 286.1 2.6 25 -999
2009-04-27 14:52:40 51°41.285 2°25.312 281.8 2.6 31 -999
2009-04-27 14:54:40 51°41.364 2°25.388 290 2.7 31 -999
2009-04-27 14:56:40 51°41.442 2°25.468 290.6 2.79 34 -999
2009-04-27 14:58:40 51°41.532 2°25.512 296.6 2.89 21 -999
2009-04-27 15:00:40 51°41.662 2°25.697 67.7 5.9 61 -999
2009-04-27 15:02:40 51°41.756 2°26.079 84.4 7.79 71 -999
2009-04-27 15:04:40 51°41.853 2°26.477 82 8 66 -999
2009-04-27 15:06:40 51°41.947 2°26.88 84.4 8.19 70 -999
2009-04-27 15:08:40 51°42.046 2°27.295 84.7 8.19 69 -999
2009-04-27 15:10:40 51°42.145 2°27.713 84.7 8.5 68 -999
2009-04-27 15:12:40 51°42.249 2°28.128 84 8.4 66 -999
2009-04-27 15:14:40 51°42.345 2°28.541 84.4 8.3 68 -999
2009-04-27 15:16:40 51°42.442 2°28.955 84 8.19 68 -999
2009-04-27 15:18:40 51°42.537 2°29.385 83.9 8.3 69 -999
2009-04-27 15:20:40 51°42.606 2°30.024 90.7 12.4 88 -999
2009-04-27 15:22:40 51°42.633 2°30.691 96.5 12.9 84 -999
2009-04-27 15:24:40 51°42.772 2°31.361 78.2 13.19 68 -999
2009-04-27 15:26:40 51°42.926 2°32.019 79.2 13.19 65 -999
2009-04-27 15:28:40 51°43.069 2°32.676 80.7 12.9 67 -999
2009-04-27 15:30:40 51°43.236 2°33.338 73.5 13.4 66 -999
2009-04-27 15:32:40 51°43.405 2°33.988 76.7 13.69 68 -999
2009-04-27 15:34:40 51°43.564 2°34.63 75 13.09 74 -999
2009-04-27 15:36:40 51°43.712 2°35.295 77.5 13.09 70 -999
2009-04-27 15:38:40 51°43.867 2°35.944 77 12.8 65 -999
2009-04-27 15:40:40 51°44.018 2°36.606 78.5 13.3 67 -999
2009-04-27 15:42:40 51°44.168 2°37.259 75.7 13 74 -999
2009-04-27 15:44:40 51°44.319 2°37.911 79.2 13.09 66 -999
2009-04-27 15:46:40 51°44.466 2°38.564 80.2 13.09 63 -999
2009-04-27 15:48:40 51°44.606 2°39.212 77.4 12.5 76 -999
2009-04-27 15:50:40 51°44.743 2°39.86 79.2 12.5 73 -999
2009-04-27 15:52:40 51°44.87 2°40.507 80.2 12.59 78 -999
2009-04-27 15:54:40 51°44.963 2°41.172 85 12.59 80 -999
2009-04-27 15:56:40 51°44.883 2°41.759 115 11.19 112 -999
2009-04-27 15:58:40 51°44.861 2°42.153 99.7 7.09 78 -999
2009-04-27 16:00:40 51°45.019 2°42.195 339.6 5.2 348 -999
2009-04-27 16:02:40 51°45.016 2°42.028 244.4 4.59 269 -999
2009-04-27 16:04:40 51°45.081 2°42.007 252 2 2 -999
2009-04-27 16:06:40 51°45.159 2°42.05 269.3 2.5 18 -999
2009-04-27 16:08:40 51°45.237 2°42.112 292.6 2.5 28 -999
2009-04-27 16:10:40 51°45.312 2°42.173 298.8 2.29 30 -999
2009-04-27 16:12:40 51°45.395 2°42.213 300.3 2.39 22 -999
2009-04-27 16:14:40 51°45.525 2°42.334 45.1 6 48 -999
2009-04-27 16:16:40 51°45.464 2°42.681 127.5 7 109 -999
2009-04-27 16:18:40 51°45.379 2°43.051 128.8 7.29 112 -999
2009-04-27 16:20:40 51°45.253 2°43.355 142 6.59 127 -999
2009-04-27 16:22:40 51°45.116 2°43.645 143 6.9 124 -999
2009-04-27 16:24:40 51°44.98 2°43.932 142.9 6.59 129 -999
2009-04-27 16:26:40 51°44.816 2°44.208 148 6.9 135 -999
2009-04-27 16:28:40 51°44.653 2°44.486 148.1 7.2 133 -999
2009-04-27 16:30:40 51°44.487 2°44.762 147.4 7.2 135 -999
2009-04-27 16:32:40 51°44.31 2°45.05 148 7.59 134 -999
2009-04-27 16:34:40 51°44.125 2°45.341 147.3 7.7 134 -999
2009-04-27 16:36:40 51°43.943 2°45.63 147.4 7.59 137 -999
2009-04-27 16:38:40 51°43.761 2°45.914 147.6 7.59 139 -999
2009-04-27 16:40:40 51°43.577 2°46.203 147.5 7.7 135 -999
2009-04-27 16:42:40 51°43.395 2°46.486 147.4 7.59 135 -999
2009-04-27 16:44:40 51°43.212 2°46.779 146.9 7.5 137 -999
2009-04-27 16:46:40 51°43.033 2°47.067 146.8 7.79 130 -999
2009-04-27 16:48:40 51°42.844 2°47.361 148 7.59 136 -999
2009-04-27 16:50:40 51°42.633 2°47.672 147.5 8.59 138 -999
2009-04-27 16:52:40 51°42.417 2°47.981 147.6 8.59 139 -999
2009-04-27 16:54:40 51°42.196 2°48.287 147.8 8.69 141 -999
2009-04-27 16:56:40 51°41.977 2°48.593 148.1 8.69 139 -999
2009-04-27 16:58:40 51°41.757 2°48.911 144.8 8.9 140 -999
2009-04-27 17:00:40 51°41.537 2°49.251 144.1 9.09 138 -999
2009-04-27 17:02:40 51°41.311 2°49.592 143 9.3 136 -999
2009-04-27 17:04:40 51°41.068 2°49.985 140.3 10.69 133 -999
2009-04-27 17:06:40 51°40.817 2°50.41 140.6 11 131 -999
2009-04-27 17:08:40 51°40.569 2°50.83 139.9 10.69 139 -999
2009-04-27 17:10:40 51°40.32 2°51.25 140.8 10.8 134 -999
2009-04-27 17:12:40 51°40.071 2°51.673 140 10.9 133 -999
2009-04-27 17:14:40 51°39.822 2°52.09 141.3 10.8 135 -999
2009-04-27 17:16:40 51°39.58 2°52.535 135.8 11 132 -999
2009-04-27 17:18:40 51°39.34 2°52.973 136.9 11.09 133 -999
2009-04-27 17:20:40 51°39.093 2°53.414 136.9 11.19 131 -999
2009-04-27 17:22:40 51°38.845 2°53.847 138.5 11.3 130 -999
2009-04-27 17:24:40 51°38.594 2°54.28 138 11.19 129 -999
2009-04-27 17:26:40 51°38.345 2°54.72 137.5 11 133 -999
2009-04-27 17:28:40 51°38.097 2°55.154 137.5 11 134 -999
2009-04-27 17:30:40 51°37.854 2°55.589 136.5 11 134 -999
2009-04-27 17:32:40 51°37.616 2°56.019 136 10.8 133 -999
2009-04-27 17:34:40 51°37.375 2°56.454 136 10.69 136 -999
2009-04-27 17:36:40 51°37.131 2°56.901 135.8 11.09 133 -999
2009-04-27 17:38:40 51°36.887 2°57.337 138.8 11 129 -999
2009-04-27 17:40:40 51°36.635 2°57.764 136.3 10.9 136 -999
2009-04-27 17:42:40 51°36.378 2°58.187 137 11.09 138 -999
2009-04-27 17:44:40 51°36.125 2°58.613 137.6 11.19 127 -999
2009-04-27 17:46:40 51°35.867 2°59.034 137.6 11.09 138 -999
2009-04-27 17:48:40 51°35.607 2°59.45 136.3 10.9 139 -999
2009-04-27 17:50:40 51°35.349 2°59.867 136.1 10.8 138 -999
2009-04-27 17:52:40 51°35.159 3°0.204 136 8.09 134 -999
2009-04-27 17:54:40 51°35.016 3°0.47 137.6 5.7 130 -999
2009-04-27 17:56:40 51°34.95 3°0.583 141 2.6 131 -999
2009-04-27 17:58:40 51°34.948 3°0.492 261.6 1.69 299 -999
2009-04-27 18:00:40 51°34.993 3°0.465 283.1 1.6 345 -999
2009-04-27 18:02:40 51°35.041 3°0.46 293.8 1.39   -999
2009-04-27 18:04:40 51°35.089 3°0.461 300.3 1.39 3 -999
2009-04-27 18:06:40 51°35.096 3°0.378 249.5 2.79 260 -999
2009-04-27 18:08:40 51°34.943 3°0.448 167 5.5 167 -999
2009-04-27 18:10:40 51°34.737 3°0.519 169.1 6.4 167 -999
2009-04-27 18:12:40 51°34.518 3°0.6 169.8 6.79 167 -999
2009-04-27 18:14:40 51°34.29 3°0.635 178.5 7 179 -999
2009-04-27 18:16:40 51°34.057 3°0.621 181.8 7 182 -999
2009-04-27 18:18:40 51°33.822 3°0.573 184.6 7 188 -999
2009-04-27 18:20:40 51°33.594 3°0.482 190.9 7 192 -999
2009-04-27 18:22:40 51°33.363 3°0.333 200.5 7.5 207 -999
2009-04-27 18:24:40 51°33.141 3°0.024 217.4 9.3 220 -999
2009-04-27 18:26:40 51°32.86 2°59.658 215.5 11.09 218 -999
2009-04-27 18:28:40 51°32.565 2°59.286 214 11.3 218 -999
2009-04-27 18:30:40 51°32.28 2°58.896 217 11.3 221 -999
2009-04-27 18:32:40 51°31.998 2°58.49 218.8 11.5 222 -999
2009-04-27 18:34:40 51°31.727 2°58.069 221.5 11.3 223 -999
2009-04-27 18:36:40 51°31.455 2°57.637 221.1 11.59 226 -999
2009-04-27 18:38:40 51°31.188 2°57.186 222.6 11.59 227 -999
2009-04-27 18:40:40 51°30.921 2°56.74 223.5 11.59 226 -999
2009-04-27 18:42:40 51°30.653 2°56.299 223.5 11.59 227 -999
2009-04-27 18:44:40 51°30.386 2°55.855 223.4 11.59 226 -999
2009-04-27 18:46:40 51°30.117 2°55.404 223.6 11.69 226 -999
2009-04-27 18:48:40 51°29.843 2°54.958 221 11.69 225 -999
2009-04-27 18:50:40 51°29.569 2°54.501 223.5 11.9 227 -999
2009-04-27 18:52:40 51°29.295 2°54.043 223.9 11.9 228 -999
2009-04-27 18:54:40 51°29.021 2°53.586 223.3 11.9 227 -999
2009-04-27 18:56:40 51°28.746 2°53.128 222.3 12 225 -999
2009-04-27 18:58:40 51°28.474 2°52.667 223.3 11.9 227 -999
2009-04-27 19:00:40 51°28.2 2°52.207 222.9 12 226 -999
2009-04-27 19:02:40 51°27.926 2°51.748 222.5 11.9 226 -999
2009-04-27 19:04:40 51°27.652 2°51.291 223 11.9 225 -999
2009-04-27 19:06:40 51°27.379 2°50.826 223.6 11.9 226 -999
2009-04-27 19:08:40 51°27.106 2°50.355 223.5 12 227 -999
2009-04-27 19:10:40 51°26.831 2°49.882 222.8 12.19 227 -999
2009-04-27 19:12:40 51°26.553 2°49.41 223.5 12.19 228 -999
2009-04-27 19:14:40 51°26.267 2°48.951 222.9 12.19 225 -999
2009-04-27 19:16:40 51°26.033 2°48.634 214.4 8.09 220 -999
2009-04-27 19:18:40 51°25.986 2°48.495 233 2.5 255 -999
2009-04-27 19:20:40 51°26.011 2°48.459 262.6 0.9 317 -999
2009-04-27 19:22:40 51°26.033 2°48.417 294 1 312 -999
2009-04-27 19:24:40 51°26.055 2°48.372 303.6 1.19 305 -999
2009-04-27 19:26:40 51°26.094 2°48.285 293.1 2.2 300 -999
2009-04-27 19:28:40 51°26.16 2°48.333 59.5 2.89 59 -999
2009-04-27 19:30:40 51°25.947 2°48.346 174.5 8.19 182 -999
2009-04-27 19:32:40 51°25.617 2°48.341 175.1 10.19 182 -999
2009-04-27 19:34:40 51°25.281 2°48.455 160.4 10.3 165 -999
2009-04-27 19:36:40 51°25.056 2°48.561 155.3 6.09 164 -999
2009-04-27 19:38:40 51°25.012 2°48.528 164.8 1.1 292 -999
2009-04-27 19:40:40 51°24.983 2°48.426 235.5 2.1 271 -999
2009-04-27 19:42:40 51°24.997 2°48.338 250.9 1.6 287 -999
2009-04-27 19:44:40 51°25.016 2°48.282 273.6 1 302 -999
2009-04-27 19:46:40 51°25.024 2°48.245 314.6 0.69 280 -999
2009-04-27 19:48:40 51°25.029 2°48.206 326.1 0.8 279 -999
2009-04-27 19:50:40 51°25.089 2°48.207 5.7 3.29 2 -999
2009-04-27 19:52:40 51°25.167 2°48.524 69.5 7.2 64 -999
2009-04-27 19:54:40 51°25.264 2°48.892 70.5 7.5 68 -999
2009-04-27 19:56:40 51°25.359 2°49.255 71 7.4 65 -999
2009-04-27 19:58:40 51°25.449 2°49.62 71.4 7.4 68 -999
2009-04-27 20:00:40 51°25.538 2°49.987 71 7.4 71 -999
2009-04-27 20:02:40 51°25.624 2°50.354 70.7 7.5 69 -999
2009-04-27 20:04:40 51°25.709 2°50.721 71.2 7.29 68 -999
2009-04-27 20:06:40 51°25.792 2°51.089 71.7 7.4 70 -999
2009-04-27 20:08:40 51°25.876 2°51.456 71.4 7.29 70 -999
2009-04-27 20:10:40 51°25.963 2°51.828 71.2 7.59 68 -999
2009-04-27 20:12:40 51°26.048 2°52.201 72 7.4 73 -999
2009-04-27 20:14:40 51°26.136 2°52.569 71.9 7.4 69 -999
2009-04-27 20:16:40 51°26.223 2°52.944 70.5 7.5 72 -999
2009-04-27 20:18:40 51°26.316 2°53.324 70.5 7.7 67 -999
2009-04-27 20:20:40 51°26.404 2°53.705 71.7 7.7 71 -999
2009-04-27 20:22:40 51°26.493 2°54.086 70.9 7.5 71 -999
2009-04-27 20:24:40 51°26.578 2°54.46 71.9 7.5 71 -999
2009-04-27 20:26:40 51°26.663 2°54.826 71 7.29 70 -999
2009-04-27 20:28:40 51°26.745 2°55.199 71 7.4 70 -999
2009-04-27 20:30:40 51°26.823 2°55.572 71.4 7.4 72 -999
2009-04-27 20:32:40 51°26.903 2°55.945 70.7 7.29 72 -999
2009-04-27 20:34:40 51°26.981 2°56.317 71 7.4 72 -999
2009-04-27 20:36:40 51°27.058 2°56.689 70.9 7.4 72 -999
2009-04-27 20:38:40 51°27.129 2°57.063 71.7 7.4 71 -999
2009-04-27 20:40:40 51°27.206 2°57.446 71.7 7.59 72 -999
2009-04-27 20:42:40 51°27.281 2°57.826 71 7.4 71 -999
2009-04-27 20:44:40 51°27.351 2°58.206 72 7.4 75 -999
2009-04-27 20:46:40 51°27.417 2°58.586 71.2 7.5 78 -999
2009-04-27 20:48:40 51°27.481 2°58.966 71.5 7.5 76 -999
2009-04-27 20:50:40 51°27.546 2°59.347 71 7.4 74 -999
2009-04-27 20:52:40 51°27.606 2°59.73 71 7.4 77 -999
2009-04-27 20:54:40 51°27.666 3°0.11 71.7 7.29 75 -999
2009-04-27 20:56:40 51°27.726 3°0.488 70.9 7.4 78 -999
2009-04-27 20:58:40 51°27.795 3°0.882 71.5 7.7 74 -999
2009-04-27 21:00:40 51°27.869 3°1.275 70.2 7.7 73 -999
2009-04-27 21:02:40 51°27.943 3°1.674 70.5 7.79 72 -999
2009-04-27 21:04:40 51°28.018 3°2.08 70.7 8 73 -999
2009-04-27 21:06:40 51°28.078 3°2.496 76 8 79 -999
2009-04-27 21:08:40 51°28.122 3°2.92 76 8 79 -999
2009-04-27 21:10:40 51°28.123 3°3.28 85.5 6.09 93 -999
2009-04-27 21:12:40 51°28.115 3°3.537 84.5 5 95 -999
2009-04-27 21:14:40 51°28.211 3°3.685 42 4.29 39 -999
2009-04-27 21:16:40 51°28.267 3°3.562 309.3 3.6 286 -999
2009-04-27 21:18:40 51°28.265 3°3.48 318.1 1.39 268 -999
2009-04-27 21:20:40 51°28.253 3°3.421 323.1 1.19 249 -999
2009-04-27 21:22:40 51°28.284 3°3.397 5.9 2 347 -999
2009-04-27 21:24:40 51°28.189 3°3.552 128.5 4.79 145 -999
2009-04-27 21:26:40 51°28.032 3°3.837 122.2 7.29 133 -999
2009-04-27 21:28:40 51°27.862 3°4.161 119.7 8.09 130 -999
2009-04-27 21:30:40 51°27.684 3°4.497 121.2 8.3 131 -999
2009-04-27 21:32:40 51°27.516 3°4.85 118.2 8.3 126 -999
2009-04-27 21:34:40 51°27.343 3°5.209 117.7 8.5 128 -999
2009-04-27 21:36:40 51°27.165 3°5.568 118.2 8.5 126 -999
2009-04-27 21:38:40 51°27.001 3°5.946 112.4 8.69 121 -999
2009-04-27 21:40:40 51°26.846 3°6.345 112 8.9 121 -999
2009-04-27 21:42:40 51°26.69 3°6.748 110.9 8.9 123 -999
2009-04-27 21:44:40 51°26.533 3°7.151 112.7 8.8 122 -999
2009-04-27 21:46:40 51°26.381 3°7.559 112.5 9.09 124 -999
2009-04-27 21:48:40 51°26.328 3°7.997 88.9 8.4 97 -999
2009-04-27 21:50:40 51°26.303 3°8.401 88.4 8 97 -999
2009-04-27 21:52:40 51°26.37 3°8.451 12.4 2.29 10 -999
2009-04-27 21:54:40 51°26.433 3°8.372 347.6 2.7 332 -999
2009-04-27 21:56:40 51°26.425 3°8.353 1.5 0.5 213 -999
2009-04-27 21:58:40 51°26.397 3°8.341 350.6 0.9 190 -999
2009-04-27 22:00:40 51°26.359 3°8.331 343.3 1.19 190 -999
2009-04-27 22:02:40 51°26.343 3°8.319 340.6 0.5 246 -999
2009-04-27 22:04:40 51°26.347 3°8.513 82 4.59 101 -999
2009-04-27 22:06:40 51°26.404 3°9.028 74.2 10.59 78 -999
2009-04-27 22:08:40 51°26.474 3°9.591 73.5 11 79 -999
2009-04-27 22:10:40 51°26.541 3°10.161 73.2 10.9 79 -999
2009-04-27 22:12:40 51°26.604 3°10.739 75.5 11.09 80 -999
2009-04-27 22:14:40 51°26.669 3°11.316 74.2 11 79 -999
2009-04-27 22:16:40 51°26.738 3°11.886 74.5 11 81 -999
2009-04-27 22:18:40 51°26.805 3°12.457 74.5 11.09 79 -999
2009-04-27 22:20:40 51°26.867 3°13.031 75 11 80 -999
2009-04-27 22:22:40 51°26.882 3°13.626 83.5 11.19 89 -999
2009-04-27 22:24:40 51°26.882 3°14.163 84 9.8 91 -999
2009-04-27 22:26:40 51°26.908 3°14.341 43.6 2.7 51 -999
2009-04-27 22:28:40 51°26.942 3°14.308 335.1 0.9 318 -999
2009-04-27 22:30:40 51°26.934 3°14.304 336.8 0.29 171 -999
2009-04-27 22:32:40 51°26.911 3°14.313 337.8 0.69 159 -999
2009-04-27 22:34:40 51°26.881 3°14.329 339.3 0.9 153 -999
2009-04-27 22:36:40 51°26.847 3°14.346 341.6 1.1 160 -999
2009-04-27 22:38:40 51°26.812 3°14.366 341.6 1 159 -999
2009-04-27 22:40:40 51°26.778 3°14.387 343.1 1.1 157 -999
2009-04-27 22:42:40 51°26.741 3°14.409 344.3 1.19 164 -999
2009-04-27 22:44:40 51°26.754 3°14.37 334.6 1.69 321 -999
2009-04-27 22:46:40 51°26.798 3°14.115 297.1 5.4 286 -999
2009-04-27 22:48:40 51°26.79 3°13.642 276 9.4 268 -999
2009-04-27 22:50:40 51°26.787 3°13.092 277.8 10.69 270 -999
2009-04-27 22:52:40 51°26.795 3°12.51 278.8 10.9 271 -999
2009-04-27 22:54:40 51°26.739 3°11.913 271.3 11.59 261 -999
2009-04-27 22:56:40 51°26.367 3°11.654 198 12.69 195 -999
2009-04-27 22:58:40 51°25.961 3°11.475 198.3 12.59 198 -999
2009-04-27 23:00:40 51°25.601 3°11.234 208.6 12 203 -999
2009-04-27 23:02:40 51°25.317 3°11.013 214.5 9.8 205 -999
2009-04-27 23:04:40 51°24.945 3°10.799 203 11.9 199 -999
2009-04-27 23:06:40 51°24.553 3°10.665 194.6 12.09 192 -999
2009-04-27 23:08:40 51°24.135 3°10.742 174.1 12.8 168 -999
2009-04-27 23:10:40 51°23.726 3°10.87 167.9 12.4 168 -999
2009-04-27 23:12:40 51°23.319 3°10.943 172 12.4 175 -999
2009-04-27 23:14:40 51°22.977 3°10.992 173.8 9.9 174 -999
2009-04-27 23:16:40 51°22.667 3°11.086 167.4 9.4 168 -999
2009-04-27 23:18:40 51°22.415 3°11.186 167.4 7.09 169 -999
2009-04-27 23:20:40 51°22.411 3°11.32 73.4 2.7 68 -999
2009-04-27 23:22:40 51°22.487 3°11.337 2.3 2.29 2 -999
2009-04-27 23:24:40 51°22.509 3°11.337 343.1 0.59 355 -999
2009-04-27 23:26:40 51°22.523 3°11.342 336.3 0.4 17 -999
2009-04-27 23:28:40 51°22.53 3°11.352 333.5 0.29 50 -999
2009-04-27 23:30:40 51°22.534 3°11.371 336.1 0.4 77 -999
2009-04-27 23:32:40 51°22.535 3°11.394 347.3 0.5 89 -999
2009-04-27 23:34:40 51°22.535 3°11.42 356.8 0.5 88 -999
2009-04-27 23:36:40 51°22.532 3°11.447 2.8 0.5 102 -999
2009-04-27 23:38:40 51°22.527 3°11.476 8 0.5 102 -999
2009-04-27 23:40:40 51°22.523 3°11.508 10.1 0.59 105 -999
2009-04-27 23:42:40 51°22.518 3°11.54 11 0.69 104 -999
2009-04-27 23:44:40 51°22.546 3°11.643 43.6 2.89 55 -999
2009-04-27 23:46:40 51°22.548 3°12.039 87.5 8.4 88 -999
2009-04-27 23:48:40 51°22.56 3°12.514 87.5 8.9 89 -999
2009-04-27 23:50:40 51°22.569 3°12.994 88 9 89 -999
2009-04-27 23:52:40 51°22.596 3°13.314 72.9 4.9 72 -999
2009-04-27 23:54:40 51°22.605 3°13.375 25.8 0.9 90 -999
2009-04-27 23:56:40 51°22.599 3°13.422 12.4 0.9 102 -999
2009-04-27 23:58:40 51°22.591 3°13.473 5.2 1 109 -999
2009-04-28 00:00:20 51°22.614 3°13.57 64.4 2.89 76 -999
2009-04-28 00:01:20 51°22.628 3°13.665 70 3.7 77 -999
2009-04-28 00:02:20 51°22.646 3°13.768 67.4 4.09 74 -999
2009-04-28 00:03:20 51°22.665 3°13.878 68.4 4.29 74 -999
2009-04-28 00:04:20 51°40.776 2°47.364 25.8 10.69 21 -999
2009-04-28 00:05:20 51°40.944 2°47.469 25.1 10.8 22 -999
2009-04-28 00:06:20 51°41.109 2°47.578 25.5 10.69 23 -999
2009-04-28 00:07:20 51°41.275 2°47.679 24.8 10.69 20 -999
2009-04-28 00:08:20 51°41.441 2°47.784 24.8 10.8 23 -999
2009-04-28 00:09:20 51°41.606 2°47.891 25.1 10.8 22 -999
2009-04-28 00:10:20 51°41.77 2°48.003 25.3 10.8 23 -999
2009-04-28 00:11:20 51°41.902 2°48.195 43.2 10.8 46 -999
2009-04-28 00:12:20 51°41.998 2°48.443 57.3 11 58 -999
2009-04-28 00:13:20 51°42.046 2°48.727 72.5 11.09 75 -999
2009-04-28 00:14:20 51°41.998 2°49.016 102.2 11.3 107 -999
2009-04-28 00:15:20 51°41.86 2°49.244 129.4 12 137 -999
2009-04-28 00:16:20 51°41.687 2°49.418 142.5 12.19 149 -999
2009-04-28 00:17:20 51°41.485 2°49.476 169 12.5 173 -999
2009-04-28 00:18:20 51°41.275 2°49.442 185.6 12.69 187 -999
2009-04-28 00:19:20 51°41.069 2°49.361 194.8 12.69 197 -999
2009-04-28 00:20:20 51°40.866 2°49.259 199 12.69 197 -999
2009-04-28 00:21:20 51°40.664 2°49.154 199 12.8 199 -999
2009-04-28 00:22:20 51°40.461 2°49.049 199.8 12.8 198 -999
2009-04-28 00:23:20 51°40.26 2°48.939 199 12.8 199 -999
2009-04-28 00:24:20 51°40.059 2°48.831 199.6 12.8 200 -999
2009-04-28 00:25:20 51°39.858 2°48.725 198.4 12.69 198 -999
2009-04-28 00:26:20 51°39.658 2°48.618 199.9 12.59 198 -999
2009-04-28 00:27:20 51°39.458 2°48.512 200 12.69 198 -999
2009-04-28 00:28:20 51°39.258 2°48.409 198.6 12.69 198 -999
2009-04-28 00:29:20 51°39.059 2°48.306 198.1 12.59 197 -999
2009-04-28 00:30:20 51°38.859 2°48.205 197.6 12.59 198 -999
2009-04-28 00:31:20 51°38.66 2°48.104 199 12.5 197 -999
2009-04-28 00:32:20 51°38.462 2°47.995 200.4 12.59 199 -999
2009-04-28 00:33:20 51°38.265 2°47.891 199 12.5 199 -999
2009-04-28 00:34:20 51°38.067 2°47.789 198.1 12.4 197 -999
2009-04-28 00:35:20 51°37.869 2°47.689 198.9 12.5 196 -999
2009-04-28 00:36:20 51°37.671 2°47.591 199.3 12.5 199 -999
2009-04-28 00:37:20 51°37.473 2°47.484 200 12.5 200 -999
2009-04-28 00:38:20 51°37.274 2°47.385 198.1 12.5 197 -999
2009-04-28 00:39:20 51°37.075 2°47.289 198.4 12.5 196 -999
2009-04-28 00:40:20 51°36.876 2°47.191 198.1 12.5 197 -999
2009-04-28 00:41:20 51°36.678 2°47.089 200.4 12.5 197 -999
2009-04-28 00:42:20 51°36.48 2°46.99 200 12.5 196 -999
2009-04-28 00:43:20 51°36.282 2°46.892 199.6 12.4 198 -999
2009-04-28 00:44:20 51°36.085 2°46.796 199.6 12.4 197 -999
2009-04-28 00:45:20 51°35.888 2°46.7 197.6 12.3 196 -999
2009-04-28 00:46:20 51°35.693 2°46.596 200.3 12.3 200 -999
2009-04-28 00:47:20 51°35.498 2°46.489 199.6 12.4 200 -999
2009-04-28 00:48:20 51°35.302 2°46.383 200.4 12.4 198 -999
2009-04-28 00:49:20 51°35.105 2°46.286 197.8 12.4 196 -999
2009-04-28 00:50:20 51°34.909 2°46.179 200.4 12.4 200 -999
2009-04-28 00:51:20 51°34.714 2°46.072 200.4 12.4 199 -999
2009-04-28 00:52:20 51°34.519 2°45.965 200.3 12.3 199 -999
2009-04-28 00:53:20 51°34.324 2°45.863 198.3 12.3 198 -999
2009-04-28 00:54:20 51°34.13 2°45.752 200 12.3 199 -999
2009-04-28 00:55:20 51°33.938 2°45.633 202.6 12.3 202 -999
2009-04-28 00:56:20 51°33.747 2°45.517 201.9 12.19 201 -999
2009-04-28 00:57:20 51°33.557 2°45.404 201.9 12.19 199 -999
2009-04-28 00:58:20 51°33.367 2°45.289 202 12.19 200 -999
2009-04-28 00:59:20 51°33.177 2°45.183 201.3 12.09 198 -999
2009-04-28 01:00:40 51°22.848 3°19.343 234.8 5.4 224 -999
2009-04-28 01:02:40 51°22.7 3°19.089 235.6 6.5 227 -999
2009-04-28 01:04:40 51°22.638 3°18.779 262.1 6.2 259 -999
2009-04-28 01:06:40 51°22.604 3°18.623 259.1 1.8 262 -999
2009-04-28 01:08:40 51°22.638 3°18.679 293.5 1.69 49 -999
2009-04-28 01:10:40 51°22.672 3°18.776 297.6 2.1 62 -999
2009-04-28 01:12:40 51°22.706 3°18.895 314.3 2.5 65 -999
2009-04-28 01:14:40 51°22.739 3°19.024 323.6 2.6 68 -999
2009-04-28 01:16:40 51°22.77 3°19.158 329.8 2.7 70 -999
2009-04-28 01:18:40 51°22.808 3°19.248 312.8 2 44 -999
2009-04-28 01:20:40 51°22.742 3°19.069 246.1 5.2 241 -999
2009-04-28 01:22:40 51°22.643 3°18.737 247.3 8.09 244 -999
2009-04-28 01:24:40 51°22.677 3°18.707 287.3 1.3 3 -999
2009-04-28 01:26:40 51°22.701 3°18.761 267.1 1.19 65 -999
2009-04-28 01:28:40 51°22.713 3°18.848 245 1.69 79 -999
2009-04-28 01:30:40 51°22.728 3°18.959 243.5 2.2 78 -999
2009-04-28 01:32:40 51°22.748 3°19.084 254.1 2.39 75 -999
2009-04-28 01:34:40 51°22.755 3°19.077 252.8 0.5 260 -999
2009-04-28 01:36:40 51°22.789 3°18.666 272.3 8.9 277 -999
2009-04-28 01:38:40 51°22.817 3°18.18 271.1 9.19 275 -999
2009-04-28 01:40:40 51°22.836 3°17.704 270.1 8.9 274 -999
2009-04-28 01:42:40 51°22.843 3°17.248 269.3 8.5 273 -999
2009-04-28 01:44:40 51°22.854 3°16.783 269.6 8.69 272 -999
2009-04-28 01:46:40 51°22.855 3°16.324 269.3 8.69 271 -999
2009-04-28 01:48:40 51°22.853 3°15.868 269.6 8.5 269 -999
2009-04-28 01:50:40 51°22.849 3°15.42 269.8 8.4 271 -999
2009-04-28 01:52:40 51°22.848 3°14.974 269.8 8.4 270 -999
2009-04-28 01:54:40 51°22.843 3°14.523 269.6 8.5 269 -999
2009-04-28 01:56:40 51°22.84 3°14.068 269.6 8.59 269 -999
2009-04-28 01:58:40 51°22.833 3°13.608 269 8.69 269 -999
2009-04-28 02:00:40 51°22.772 3°13.163 258.3 8.69 252 -999
2009-04-28 02:02:40 51°22.631 3°12.733 249 9.19 244 -999
2009-04-28 02:04:40 51°22.493 3°12.293 248.3 9.3 244 -999
2009-04-28 02:06:40 51°22.359 3°11.842 247.4 9.4 242 -999
2009-04-28 02:08:40 51°22.293 3°11.367 259.8 9.09 260 -999
2009-04-28 02:10:40 51°22.236 3°10.89 257.6 9.19 258 -999
2009-04-28 02:12:40 51°22.189 3°10.392 259.8 9.5 262 -999
2009-04-28 02:14:40 51°22.169 3°9.876 264.3 9.8 267 -999
2009-04-28 02:16:40 51°22.145 3°9.363 263.8 9.69 266 -999
2009-04-28 02:18:40 51°22.118 3°8.85 261.6 9.59 264 -999
2009-04-28 02:20:40 51°22.094 3°8.34 263.6 9.69 266 -999
2009-04-28 02:22:40 51°22.07 3°7.824 264.3 9.8 267 -999
2009-04-28 02:24:40 51°22.047 3°7.301 263.3 9.8 266 -999
2009-04-28 02:26:40 51°22.023 3°6.783 264 9.8 267 -999
2009-04-28 02:28:40 51°21.963 3°6.286 255.1 9.5 257 -999
2009-04-28 02:30:40 51°21.875 3°5.804 253.5 9.5 255 -999
2009-04-28 02:32:40 51°21.789 3°5.317 254.8 9.5 256 -999
2009-04-28 02:34:40 51°21.678 3°4.841 249 9.59 250 -999
2009-04-28 02:36:40 51°21.56 3°4.369 247.5 9.59 247 -999
2009-04-28 02:38:40 51°21.452 3°3.891 250 9.59 251 -999
2009-04-28 02:40:40 51°21.346 3°3.418 250 9.5 251 -999
2009-04-28 02:42:40 51°21.245 3°2.946 249.5 9.4 250 -999
2009-04-28 02:44:40 51°21.141 3°2.475 248 9.4 252 -999
2009-04-28 02:46:40 51°21.05 3°1.993 250 9.5 253 -999
2009-04-28 02:48:40 51°20.957 3°1.511 249.8 9.5 253 -999
2009-04-28 02:50:40 51°20.863 3°1.027 248.8 9.59 255 -999
2009-04-28 02:52:40 51°20.774 3°0.536 249.9 9.59 254 -999
2009-04-28 02:54:40 51°20.672 3°0.039 249 9.9 251 -999
2009-04-28 02:56:40 51°20.564 2°59.538 247.5 10 249 -999
2009-04-28 02:58:40 51°20.436 2°59.045 245 10 247 -999
2009-04-28 03:00:40 51°20.306 2°58.554 245.5 10 248 -999
2009-04-28 03:02:40 51°20.17 2°58.058 246 10.3 249 -999
2009-04-28 03:04:40 51°20.008 2°57.588 240.1 10.09 241 -999
2009-04-28 03:06:40 51°19.845 2°57.121 238.3 10.19 242 -999
2009-04-28 03:08:40 51°19.684 2°56.644 240 10.19 242 -999
2009-04-28 03:10:40 51°19.525 2°56.165 240.5 10.19 243 -999
2009-04-28 03:12:40 51°19.365 2°55.681 240 10.3 242 -999
2009-04-28 03:14:40 51°19.204 2°55.196 240.3 10.3 244 -999
2009-04-28 03:16:40 51°19.018 2°54.733 233.5 10.3 232 -999
2009-04-28 03:18:40 51°18.805 2°54.295 231.8 10.4 232 -999
2009-04-28 03:20:40 51°18.562 2°53.909 224.1 10.3 224 -999
2009-04-28 03:22:40 51°18.299 2°53.557 219.3 10.4 218 -999
2009-04-28 03:24:40 51°18.028 2°53.219 218 10.3 218 -999
2009-04-28 03:26:40 51°17.759 2°52.875 218 10.4 218 -999
2009-04-28 03:28:40 51°17.489 2°52.537 219.5 10.4 220 -999
2009-04-28 03:30:40 51°17.189 2°52.272 214.5 10.3 209 -999
2009-04-28 03:32:40 51°16.838 2°52.356 172.8 11 163 -999
2009-04-28 03:34:40 51°16.491 2°52.569 164.8 11.19 159 -999
2009-04-28 03:36:40 51°16.148 2°52.785 166.1 11 157 -999
2009-04-28 03:38:40 51°15.813 2°53.065 157.5 11.5 149 -999
2009-04-28 03:40:40 51°15.484 2°53.373 156.4 11.4 149 -999
2009-04-28 03:42:40 51°15.153 2°53.672 157.5 11.4 152 -999
2009-04-28 03:44:40 51°14.854 2°54.054 147.5 11.59 140 -999
2009-04-28 03:46:40 51°14.611 2°54.562 129.6 12.3 123 -999
2009-04-28 03:48:40 51°14.36 2°55.046 138.6 11.8 128 -999
2009-04-28 03:50:40 51°14.124 2°55.428 137.5 9.59 138 -999
2009-04-28 03:52:40 51°13.884 2°55.588 160 7.4 158 -999
2009-04-28 03:54:40 51°13.715 2°55.786 137.9 6 134 -999
2009-04-28 03:56:40 51°13.664 2°55.948 110.4 3.29 109 -999
2009-04-28 03:58:40 51°13.663 2°55.959 120 0.1 38 -999
2009-04-28 04:00:40 51°13.661 2°55.959 127.2   123 -999
2009-04-28 04:02:40 51°13.664 2°55.959 127.5   291 -999
2009-04-28 04:04:40 51°13.664 2°55.959 127.5   202 -999
2009-04-28 06:38:40 51°13.66 2°55.961 126.7   270 -999
2009-04-28 06:40:40 51°13.662 2°55.962 126.5   78 -999
2009-04-28 06:42:40 51°13.663 2°55.961 126.5   81 -999
2009-04-28 06:44:40 51°13.663 2°55.96 126.5 0.1 287 -999
2009-04-28 06:46:40 51°13.662 2°55.96 126.7   262 -999
2009-04-28 06:48:40 51°13.663 2°55.961 127   116 -999
2009-04-28 06:50:40 51°13.663 2°55.959 129.9 0.1 314 -999
2009-04-28 06:52:40 51°13.662 2°55.959 120.7   212 -999
2009-04-28 06:54:40 51°13.691 2°55.848 113.9 3.1 296 -999
2009-04-28 06:56:40 51°13.704 2°55.745 76.4 1.3 272 -999
2009-04-28 06:58:40 51°13.846 2°55.624 326.5 6.7 325 -999
2009-04-28 07:00:40 51°14.119 2°55.418 336.8 9.09 336 -999
2009-04-28 07:02:40 51°14.359 2°55.089 316.1 9.69 313 -999
2009-04-28 07:04:40 51°14.645 2°54.739 331.1 11.09 324 -999
2009-04-28 07:06:40 51°14.997 2°54.449 340.8 11.9 333 -999
2009-04-28 07:08:40 51°15.349 2°54.154 338.3 12 331 -999
2009-04-28 07:10:40 51°15.698 2°53.855 338.8 12 332 -999
2009-04-28 07:12:40 51°16.051 2°53.564 342.1 11.9 333 -999
2009-04-28 07:14:40 51°16.399 2°53.251 338.3 12.19 331 -999
2009-04-28 07:16:40 51°16.748 2°52.915 335.6 12.3 329 -999
2009-04-28 07:18:40 51°17.084 2°52.569 333.3 12 328 -999
2009-04-28 07:20:40 51°17.407 2°52.188 326.5 12.09 321 -999
2009-04-28 07:22:40 51°17.7 2°51.739 320.6 12.19 315 -999
2009-04-28 07:24:40 51°17.996 2°51.29 322.3 12.3 316 -999
2009-04-28 07:26:40 51°18.303 2°50.855 325.1 12.3 319 -999
2009-04-28 07:28:40 51°18.613 2°50.421 325.3 12.5 318 -999
2009-04-28 07:30:40 51°18.915 2°49.97 324.1 12.5 317 -999
2009-04-28 07:32:40 51°19.223 2°49.516 324.1 12.69 318 -999
2009-04-28 07:34:40 51°19.532 2°49.057 323.1 12.59 317 -999
2009-04-28 07:36:40 51°19.835 2°48.6 323.1 12.59 316 -999
2009-04-28 07:38:40 51°20.158 2°48.179 328.8 12.5 322 -999
2009-04-28 07:40:40 51°20.507 2°47.82 340.3 12.3 332 -999
2009-04-28 07:42:40 51°20.844 2°47.435 324.1 12.69 321 -999
2009-04-28 07:44:40 51°21.238 2°47.313 358.6 12 351 -999
2009-04-28 07:46:40 51°21.635 2°47.216 359.5 12.19 350 -999
2009-04-28 07:48:40 51°22.03 2°47.13   11.9 351 -999
2009-04-28 07:50:40 51°22.415 2°46.981 353.8 12 343 -999
2009-04-28 07:52:40 51°22.658 2°46.454 306.1 12.59 300 -999
2009-04-28 07:54:40 51°22.817 2°45.823 297.3 12.8 292 -999
2009-04-28 07:56:40 51°22.965 2°45.181 294.3 12.69 290 -999
2009-04-28 07:58:40 51°23.119 2°44.561 295.1 12.69 292 -999
2009-04-28 08:00:40 51°23.326 2°43.978 305.3 12.59 301 -999
2009-04-28 08:02:40 51°23.563 2°43.423 310.6 12.69 305 -999
2009-04-28 08:04:40 51°23.824 2°42.899 314.8 12.59 309 -999
2009-04-28 08:06:40 51°24.094 2°42.389 318 12.5 313 -999
2009-04-28 08:08:40 51°24.379 2°41.911 318.1 12.4 310 -999
2009-04-28 08:10:40 51°24.69 2°41.475 325.1 12.4 318 -999
2009-04-28 08:12:40 51°24.981 2°41.019 323.1 12.4 316 -999
2009-04-28 08:14:40 51°25.277 2°40.56 322.6 12.3 317 -999
2009-04-28 08:16:40 51°25.571 2°40.105 323.6 12.4 316 -999
2009-04-28 08:18:40 51°25.875 2°39.676 325.5 12.09 319 -999
2009-04-28 08:20:40 51°26.178 2°39.251 321.6 12.19 316 -999
2009-04-28 08:22:40 51°26.453 2°38.768 319.1 12.4 313 -999
2009-04-28 08:24:40 51°26.728 2°38.284 319.5 12.3 313 -999
2009-04-28 08:26:40 51°27.004 2°37.798 318.1 12.4 311 -999
2009-04-28 08:28:40 51°27.311 2°37.369 325.1 12.3 319 -999
2009-04-28 08:30:40 51°27.639 2°36.993 332 12.09 325 -999
2009-04-28 08:32:40 51°27.969 2°36.626 331.8 12.09 325 -999
2009-04-28 08:34:40 51°28.318 2°36.32 340.3 12 335 -999
2009-04-28 08:36:40 51°28.671 2°36.024 340.3 11.9 332 -999
2009-04-28 08:38:40 51°29.036 2°35.871 357 11.3 350 -999
2009-04-28 08:40:40 51°29.386 2°36.046 24.3 11 19 -999
2009-04-28 08:42:40 51°29.73 2°36.246 25.5 11 20 -999
2009-04-28 08:44:40 51°30.075 2°36.45 26.5 11 23 -999
2009-04-28 08:46:40 51°30.419 2°36.647 25.5 11.09 20 -999